WetterOnline ( http://www.wetteronline.de )

Wetter aktuell Friedberg

Aktuelles Wetter: Kleiner Feldberg (802m)

6-stündlich | Neueste Meldungen
Ortszeit Temperatur Wetter
So, 27.05. 2:00 16.1° C wolkig
Sa, 26.05. 20:00 19.6° C leicht bewölkt
Sa, 26.05. 14:00 20.3° C fast wolkenlos
Sa, 26.05. 8:00 14.9° C leicht bewölkt
Sa, 26.05. 2:00 14.6° C wolkig
Fr, 25.05. 20:00 16.7° C bewölkt
Fr, 25.05. 14:00 16.2° C bedeckt
Fr, 25.05. 8:00 14.4° C wolkenlos
Ortszeit Temperatur Wetter
So, 27.05. 7:00 17.4° C bewölkt
So, 27.05. 6:50 17.4° C bewölkt
So, 27.05. 6:40 17.4° C bedeckt
So, 27.05. 6:30 17.5° C bedeckt
So, 27.05. 6:20 17.5° C bedeckt
So, 27.05. 6:10 17.4° C bedeckt
So, 27.05. 6:00 17.2° C bedeckt
So, 27.05. 5:30 16.8° C wolkig
So, 27.05. 5:00 17.0° C wolkig
So, 27.05. 4:30 16.8° C wolkig
So, 27.05. 4:00 16.6° C leicht bewölkt
Ortszeit Relative Feuchte Sichtweite
So, 27.05. 2:00 75% 30 km
Sa, 26.05. 20:00 60% 45 km
Sa, 26.05. 14:00 60% 24 km
Sa, 26.05. 8:00 82% 20 km
Sa, 26.05. 2:00 82% 30 km
Fr, 25.05. 20:00 80% 30 km
Fr, 25.05. 14:00 85% 11 km
Fr, 25.05. 8:00 93% 8 km
Ortszeit Relative Feuchte Sichtweite
So, 27.05. 7:00 68% 45 km
So, 27.05. 6:50 68% -
So, 27.05. 6:40 68% -
So, 27.05. 6:30 67% 40 km
So, 27.05. 6:20 67% -
So, 27.05. 6:10 68% -
So, 27.05. 6:00 69% 40 km
So, 27.05. 5:30 70% 45 km
So, 27.05. 5:00 69% 45 km
So, 27.05. 4:30 70% 40 km
So, 27.05. 4:00 70% 35 km
Ortszeit Niederschlagsmenge Niederschlagsart
So, 27.05. 2:00 0.0 l/m2 in 6 Std. -
Sa, 26.05. 20:00 0.0 l/m2 in 12 Std. -
Sa, 26.05. 14:00 0.0 l/m2 in 6 Std. -
Sa, 26.05. 8:00 0.0 l/m2 in 12 Std. -
Sa, 26.05. 2:00 0.0 l/m2 in 6 Std. -
Fr, 25.05. 20:00 0.1 l/m2 in 12 Std. Regen
Fr, 25.05. 14:00 0.1 l/m2 in 6 Std. Regen
Fr, 25.05. 8:00 0.0 l/m2 in 12 Std. -
Ortszeit Niederschlagsmenge Niederschlagsart
So, 27.05. 7:00 0.0 l/m2 in 1 Std. -
So, 27.05. 6:50 keine Meldung -
So, 27.05. 6:40 keine Meldung -
So, 27.05. 6:30 0.0 l/m2 in 1 Std. -
So, 27.05. 6:20 keine Meldung -
So, 27.05. 6:10 keine Meldung -
So, 27.05. 6:00 0.0 l/m2 in 1 Std. -
So, 27.05. 5:30 0.0 l/m2 in 1 Std. -
So, 27.05. 5:00 0.0 l/m2 in 1 Std. -
So, 27.05. 4:30 0.0 l/m2 in 1 Std. -
So, 27.05. 4:00 0.0 l/m2 in 1 Std. -
Ortszeit Stärke Spitze Richtung
km/h Bft. km/h Grad Sektor
So, 27.05. 2:00 18 3 29 80° O
Sa, 26.05. 20:00 7 2 25 70° O
Sa, 26.05. 14:00 14 3 29 90° O
Sa, 26.05. 8:00 18 3 29 90° O
Sa, 26.05. 2:00 15 3 28 100° O
Fr, 25.05. 20:00 9 2 19 60° NO
Fr, 25.05. 14:00 6 1 15 90° O
Fr, 25.05. 8:00 6 1 15 140° SO
Ortszeit Stärke Spitze Richtung
km/h Bft. km/h Grad Sektor
So, 27.05. 7:00 11 2 17 110° O
So, 27.05. 6:50 11 2 - 110° O
So, 27.05. 6:40 11 2 - 100° O
So, 27.05. 6:30 11 2 18 100° O
So, 27.05. 6:20 11 2 - 100° O
So, 27.05. 6:10 11 2 - 100° O
So, 27.05. 6:00 11 2 22 110° O
So, 27.05. 5:30 13 3 20 120° SO
So, 27.05. 5:00 14 3 25 120° SO
So, 27.05. 4:30 18 3 25 120° SO
So, 27.05. 4:00 19 3 26 100° O
Ortszeit Untergrenze Bedeckung Gattung
total tief tief mittel hoch
So, 27.05. 2:00 9000 m 7/8 0/8 - - -
Sa, 26.05. 20:00 3300 m 2/8 - - - -
Sa, 26.05. 14:00 9000 m 1/8 0/8 - - -
Sa, 26.05. 8:00 9000 m 8/8 0/8 - - -
Sa, 26.05. 2:00 8700 m 8/8 0/8 - - -
Fr, 25.05. 20:00 2400 m 8/8 7/8 - - -
Fr, 25.05. 14:00 330 m 8/8 8/8 - - -
Fr, 25.05. 8:00 60 m 0/8 0/8 - - -
Ortszeit Bedeckungsgrad in Achtel und Wolkenuntergrenze
So, 27.05. 7:00 7(3300m) 7(7800m)
So, 27.05. 6:50 7(3300m) 7(7800m)
So, 27.05. 6:40 8(3300m)
So, 27.05. 6:30 8(3300m)
So, 27.05. 6:20 8(3300m)
So, 27.05. 6:10 8(3300m)
So, 27.05. 6:00 8(3300m) 8(8400m)
So, 27.05. 5:30 3(3300m) 8(8100m) 8(8700m)
So, 27.05. 5:00 8(8100m) 8(9000m) 8(9000m)
So, 27.05. 4:30 8(8700m)
So, 27.05. 4:00 5(9000m)
Ortszeit Stationsdruck (hPa) Tendenz (hPa in 3 Std.)
So, 27.05. 2:00 926 - 0,9
Sa, 26.05. 20:00 927 - 0,3
Sa, 26.05. 14:00 927 + 0,3
Sa, 26.05. 8:00 926 + 0,8
Sa, 26.05. 2:00 925 + 0,2
Fr, 25.05. 20:00 925 - 0,2
Fr, 25.05. 14:00 925 + 0,1
Fr, 25.05. 8:00 924 + 0,4
Ortszeit Stationsdruck (hPa) Tendenz (hPa in 3 Std.)
So, 27.05. 7:00 925 - 0,2
So, 27.05. 6:50 925 keine Meldung
So, 27.05. 6:40 925 keine Meldung
So, 27.05. 6:30 925 - 0,5
So, 27.05. 6:20 925 keine Meldung
So, 27.05. 6:10 925 keine Meldung
So, 27.05. 6:00 925 - 0,7
So, 27.05. 5:30 925 - 0,9
So, 27.05. 5:00 925 - 1,3
So, 27.05. 4:30 925 - 1,3
So, 27.05. 4:00 925 - 1,3
Ortszeit Schneehöhe (cm)
So, 27.05. 2:00 -
Sa, 26.05. 20:00 -
Sa, 26.05. 14:00 -
Sa, 26.05. 8:00 -
Sa, 26.05. 2:00 -
Fr, 25.05. 20:00 -
Fr, 25.05. 14:00 -
Fr, 25.05. 8:00 -
Ortszeit Schneehöhe (cm)
So, 27.05. 7:00 -
So, 27.05. 6:50 -
So, 27.05. 6:40 -
So, 27.05. 6:30 -
So, 27.05. 6:20 -
So, 27.05. 6:10 -
So, 27.05. 6:00 -
So, 27.05. 5:30 -
So, 27.05. 5:00 -
So, 27.05. 4:30 -
So, 27.05. 4:00 -
Link zu dieser Seite / Seite empfehlen

Das Wetter in ...